Pagina principale
METAR-TAF:

METAR-TAF

Aeroporti :

Aeroporto di Spalato-Castelli

Spalato, Croazia

latitudine: 43-32N, longitudine: 016-18E, altezza: 19 m

Osservazione

Il bollettino è stato emesso 33 minuti fa, alle 12:00 UTC
Vento 12 kt da sud-ovest
Temperature 24°C
Umidità 24%
Pressione 1026 hPa
Visibilità 10 km o più
nessuna nube inferiore a 1500 m e nessun cumulonembo

METAR: LDSP 191200Z 23012KT CAVOK 24/02 Q1026 NOSIG

Ora: 14:33 (12:33 UTC)

Previsione

Il bollettino è stato emesso 1 ora e 8 minuti fa, alle 11:25 UTC
Previsione valida dal 19 alle 12 UTC al 20 alle 12 UTC
Vento 12 kt da sud-ovest
Visibilità 10 km o più
nessuna nube inferiore a 1500 m e nessun cumulonembo
Evoluzione graduale
dal 19 alle 15 UTC al 19 alle 17 UTC
Vento 7 kt da nord-ovest
Evoluzione graduale
dal 20 alle 09 UTC al 20 alle 11 UTC
Vento 8 kt da sud-ovest

TAF: LDSP 191125Z 1912/2012 23012KT CAVOK TX26/2011Z TN12/2003Z BECMG 1915/1917 32007KT BECMG 2009/2011 23008KT

Osservazioni e previsioni meteorologiche di più di 4000 aeroporti (messaggi METAR e TAF).

Le stazioni disponibili sono rappresentate dai dischi gialli e rossi sulla carta.

Puntare il mouse per vedere il nome della stazione.

Clicca sopra per visualizzare le osservazioni e previsioni meteorologiche.

Per cambiare la mappa : fare clic sui pulsanti verdi con una croce nera per ingrandire, il pulsante verde con un trattino per diminuire, o sulla freccia verde per le mappe adiacenti.


METAR-TAF: